sensor_id;sensor_type;location;lat;lon;timestamp;P1;durP1;ratioP1;P2;durP2;ratioP2
38683;SDS011;24910;53.248;-6.134;2023-04-25T00:00:07;15.77;;;6.20;;
38683;SDS011;24910;53.248;-6.134;2023-04-25T00:02:39;17.20;;;6.82;;
38683;SDS011;24910;53.248;-6.134;2023-04-25T00:05:09;15.55;;;6.38;;
38683;SDS011;24910;53.248;-6.134;2023-04-25T00:07:39;15.30;;;8.32;;
38683;SDS011;24910;53.248;-6.134;2023-04-25T00:10:10;16.17;;;7.10;;
38683;SDS011;24910;53.248;-6.134;2023-04-25T00:12:39;15.73;;;7.45;;
38683;SDS011;24910;53.248;-6.134;2023-04-25T00:15:09;14.85;;;6.72;;
38683;SDS011;24910;53.248;-6.134;2023-04-25T00:17:39;12.80;;;6.53;;
38683;SDS011;24910;53.248;-6.134;2023-04-25T00:20:10;8.25;;;5.15;;
38683;SDS011;24910;53.248;-6.134;2023-04-25T00:22:39;12.50;;;4.90;;
38683;SDS011;24910;53.248;-6.134;2023-04-25T00:25:08;9.93;;;4.80;;
38683;SDS011;24910;53.248;-6.134;2023-04-25T00:27:39;13.75;;;5.20;;
38683;SDS011;24910;53.248;-6.134;2023-04-25T00:30:09;8.82;;;4.70;;
38683;SDS011;24910;53.248;-6.134;2023-04-25T00:32:39;11.13;;;4.97;;
38683;SDS011;24910;53.248;-6.134;2023-04-25T00:35:09;8.45;;;4.88;;
38683;SDS011;24910;53.248;-6.134;2023-04-25T00:37:38;11.20;;;5.55;;
38683;SDS011;24910;53.248;-6.134;2023-04-25T00:40:07;11.93;;;5.45;;
38683;SDS011;24910;53.248;-6.134;2023-04-25T00:42:38;14.15;;;5.63;;
38683;SDS011;24910;53.248;-6.134;2023-04-25T00:45:08;10.50;;;5.43;;
38683;SDS011;24910;53.248;-6.134;2023-04-25T00:47:42;8.52;;;4.93;;
38683;SDS011;24910;53.248;-6.134;2023-04-25T00:50:13;9.95;;;4.75;;
38683;SDS011;24910;53.248;-6.134;2023-04-25T00:52:43;9.60;;;4.68;;
38683;SDS011;24910;53.248;-6.134;2023-04-25T00:55:12;10.80;;;5.20;;
38683;SDS011;24910;53.248;-6.134;2023-04-25T00:57:44;8.80;;;4.90;;
38683;SDS011;24910;53.248;-6.134;2023-04-25T01:02:43;10.75;;;4.63;;
38683;SDS011;24910;53.248;-6.134;2023-04-25T01:05:13;8.15;;;5.15;;
38683;SDS011;24910;53.248;-6.134;2023-04-25T01:07:43;11.10;;;4.93;;
38683;SDS011;24910;53.248;-6.134;2023-04-25T01:10:12;7.68;;;4.85;;
38683;SDS011;24910;53.248;-6.134;2023-04-25T01:12:41;11.48;;;5.10;;
38683;SDS011;24910;53.248;-6.134;2023-04-25T01:15:11;10.00;;;5.15;;
38683;SDS011;24910;53.248;-6.134;2023-04-25T01:17:40;9.65;;;4.72;;
38683;SDS011;24910;53.248;-6.134;2023-04-25T01:20:11;15.27;;;5.20;;
38683;SDS011;24910;53.248;-6.134;2023-04-25T01:22:43;9.98;;;4.93;;
38683;SDS011;24910;53.248;-6.134;2023-04-25T01:25:13;7.47;;;5.03;;
38683;SDS011;24910;53.248;-6.134;2023-04-25T01:27:43;9.45;;;4.30;;
38683;SDS011;24910;53.248;-6.134;2023-04-25T01:30:13;7.80;;;4.53;;
38683;SDS011;24910;53.248;-6.134;2023-04-25T01:32:43;10.02;;;4.40;;
38683;SDS011;24910;53.248;-6.134;2023-04-25T01:35:12;6.90;;;4.35;;
38683;SDS011;24910;53.248;-6.134;2023-04-25T01:37:41;8.13;;;4.43;;
38683;SDS011;24910;53.248;-6.134;2023-04-25T01:40:13;8.85;;;5.35;;
38683;SDS011;24910;53.248;-6.134;2023-04-25T01:42:42;13.68;;;5.53;;
38683;SDS011;24910;53.248;-6.134;2023-04-25T01:45:12;8.98;;;5.72;;
38683;SDS011;24910;53.248;-6.134;2023-04-25T01:47:41;13.93;;;6.60;;
38683;SDS011;24910;53.248;-6.134;2023-04-25T01:50:14;11.43;;;5.60;;
38683;SDS011;24910;53.248;-6.134;2023-04-25T01:52:46;10.70;;;5.38;;
38683;SDS011;24910;53.248;-6.134;2023-04-25T01:55:16;10.15;;;5.28;;
38683;SDS011;24910;53.248;-6.134;2023-04-25T01:57:53;10.63;;;5.35;;
38683;SDS011;24910;53.248;-6.134;2023-04-25T02:00:33;8.13;;;4.82;;
38683;SDS011;24910;53.248;-6.134;2023-04-25T02:03:03;9.63;;;4.60;;
38683;SDS011;24910;53.248;-6.134;2023-04-25T02:05:34;9.15;;;3.97;;
38683;SDS011;24910;53.248;-6.134;2023-04-25T02:08:08;9.48;;;3.90;;
38683;SDS011;24910;53.248;-6.134;2023-04-25T02:10:37;7.70;;;3.80;;
38683;SDS011;24910;53.248;-6.134;2023-04-25T02:13:14;6.82;;;3.30;;
38683;SDS011;24910;53.248;-6.134;2023-04-25T02:16:06;7.18;;;3.25;;
38683;SDS011;24910;53.248;-6.134;2023-04-25T02:21:06;6.90;;;3.65;;
38683;SDS011;24910;53.248;-6.134;2023-04-25T02:23:37;7.15;;;3.28;;
38683;SDS011;24910;53.248;-6.134;2023-04-25T02:26:06;5.30;;;3.05;;
38683;SDS011;24910;53.248;-6.134;2023-04-25T02:28:35;7.93;;;3.30;;
38683;SDS011;24910;53.248;-6.134;2023-04-25T02:31:04;8.63;;;3.20;;
38683;SDS011;24910;53.248;-6.134;2023-04-25T02:33:34;6.28;;;3.22;;
38683;SDS011;24910;53.248;-6.134;2023-04-25T02:36:05;9.93;;;3.20;;
38683;SDS011;24910;53.248;-6.134;2023-04-25T02:38:34;6.53;;;3.63;;
38683;SDS011;24910;53.248;-6.134;2023-04-25T02:41:05;9.57;;;3.30;;
38683;SDS011;24910;53.248;-6.134;2023-04-25T02:43:34;6.90;;;3.30;;
38683;SDS011;24910;53.248;-6.134;2023-04-25T02:46:03;7.20;;;3.22;;
38683;SDS011;24910;53.248;-6.134;2023-04-25T02:48:32;10.45;;;3.03;;
38683;SDS011;24910;53.248;-6.134;2023-04-25T02:51:01;11.30;;;3.58;;
38683;SDS011;24910;53.248;-6.134;2023-04-25T02:53:30;8.93;;;3.30;;
38683;SDS011;24910;53.248;-6.134;2023-04-25T02:56:01;9.18;;;3.35;;
38683;SDS011;24910;53.248;-6.134;2023-04-25T02:58:30;8.65;;;3.05;;
38683;SDS011;24910;53.248;-6.134;2023-04-25T03:00:59;7.55;;;2.90;;
38683;SDS011;24910;53.248;-6.134;2023-04-25T03:03:29;7.45;;;3.30;;
38683;SDS011;24910;53.248;-6.134;2023-04-25T03:05:58;7.18;;;3.20;;
38683;SDS011;24910;53.248;-6.134;2023-04-25T03:08:31;10.02;;;3.30;;
38683;SDS011;24910;53.248;-6.134;2023-04-25T03:11:03;7.13;;;3.17;;
38683;SDS011;24910;53.248;-6.134;2023-04-25T03:13:32;8.93;;;3.20;;
38683;SDS011;24910;53.248;-6.134;2023-04-25T03:16:01;10.25;;;3.20;;
38683;SDS011;24910;53.248;-6.134;2023-04-25T03:18:30;9.65;;;3.08;;
38683;SDS011;24910;53.248;-6.134;2023-04-25T03:20:59;5.47;;;2.75;;
38683;SDS011;24910;53.248;-6.134;2023-04-25T03:23:30;8.02;;;2.83;;
38683;SDS011;24910;53.248;-6.134;2023-04-25T03:26:00;7.07;;;3.38;;
38683;SDS011;24910;53.248;-6.134;2023-04-25T03:28:30;6.72;;;3.03;;
38683;SDS011;24910;53.248;-6.134;2023-04-25T03:31:00;6.60;;;3.03;;
38683;SDS011;24910;53.248;-6.134;2023-04-25T03:33:29;4.25;;;2.72;;
38683;SDS011;24910;53.248;-6.134;2023-04-25T03:35:58;5.63;;;2.67;;
38683;SDS011;24910;53.248;-6.134;2023-04-25T03:38:29;6.13;;;2.92;;
38683;SDS011;24910;53.248;-6.134;2023-04-25T03:40:59;5.40;;;2.40;;
38683;SDS011;24910;53.248;-6.134;2023-04-25T03:43:43;5.75;;;2.80;;
38683;SDS011;24910;53.248;-6.134;2023-04-25T03:46:13;5.63;;;2.65;;
38683;SDS011;24910;53.248;-6.134;2023-04-25T03:48:43;9.15;;;2.50;;
38683;SDS011;24910;53.248;-6.134;2023-04-25T03:51:18;4.07;;;2.55;;
38683;SDS011;24910;53.248;-6.134;2023-04-25T03:53:47;5.78;;;3.20;;
38683;SDS011;24910;53.248;-6.134;2023-04-25T03:56:19;7.65;;;2.70;;
38683;SDS011;24910;53.248;-6.134;2023-04-25T03:58:58;4.18;;;2.65;;
38683;SDS011;24910;53.248;-6.134;2023-04-25T04:01:29;11.38;;;2.80;;
38683;SDS011;24910;53.248;-6.134;2023-04-25T04:03:59;4.53;;;2.53;;
38683;SDS011;24910;53.248;-6.134;2023-04-25T04:06:29;4.15;;;2.40;;
38683;SDS011;24910;53.248;-6.134;2023-04-25T04:09:05;8.60;;;2.83;;
38683;SDS011;24910;53.248;-6.134;2023-04-25T04:11:39;5.88;;;2.72;;
38683;SDS011;24910;53.248;-6.134;2023-04-25T04:14:09;5.60;;;3.20;;
38683;SDS011;24910;53.248;-6.134;2023-04-25T04:16:43;4.45;;;3.00;;
38683;SDS011;24910;53.248;-6.134;2023-04-25T04:19:12;7.18;;;2.92;;
38683;SDS011;24910;53.248;-6.134;2023-04-25T04:21:47;4.65;;;2.95;;
38683;SDS011;24910;53.248;-6.134;2023-04-25T04:24:16;4.75;;;2.80;;
38683;SDS011;24910;53.248;-6.134;2023-04-25T04:27:06;4.55;;;2.83;;
38683;SDS011;24910;53.248;-6.134;2023-04-25T04:29:39;6.82;;;3.05;;
38683;SDS011;24910;53.248;-6.134;2023-04-25T04:32:29;9.05;;;3.03;;
38683;SDS011;24910;53.248;-6.134;2023-04-25T04:35:00;4.35;;;2.70;;
38683;SDS011;24910;53.248;-6.134;2023-04-25T04:37:29;4.88;;;2.80;;
38683;SDS011;24910;53.248;-6.134;2023-04-25T04:39:59;5.60;;;3.08;;
38683;SDS011;24910;53.248;-6.134;2023-04-25T04:42:52;6.32;;;2.95;;
38683;SDS011;24910;53.248;-6.134;2023-04-25T04:45:40;6.88;;;3.05;;
38683;SDS011;24910;53.248;-6.134;2023-04-25T04:48:29;5.68;;;2.85;;
38683;SDS011;24910;53.248;-6.134;2023-04-25T04:51:14;6.75;;;2.80;;
38683;SDS011;24910;53.248;-6.134;2023-04-25T04:54:04;6.80;;;3.40;;
38683;SDS011;24910;53.248;-6.134;2023-04-25T04:57:02;9.65;;;3.70;;
38683;SDS011;24910;53.248;-6.134;2023-04-25T04:59:51;7.53;;;3.55;;
38683;SDS011;24910;53.248;-6.134;2023-04-25T05:02:40;6.90;;;4.82;;
38683;SDS011;24910;53.248;-6.134;2023-04-25T05:05:37;6.68;;;3.40;;
38683;SDS011;24910;53.248;-6.134;2023-04-25T05:08:29;10.25;;;4.00;;
38683;SDS011;24910;53.248;-6.134;2023-04-25T05:11:11;8.88;;;3.13;;
38683;SDS011;24910;53.248;-6.134;2023-04-25T05:14:01;6.22;;;2.58;;
38683;SDS011;24910;53.248;-6.134;2023-04-25T05:16:45;6.97;;;2.63;;
38683;SDS011;24910;53.248;-6.134;2023-04-25T05:19:40;4.78;;;2.88;;
38683;SDS011;24910;53.248;-6.134;2023-04-25T05:22:32;4.28;;;2.90;;
38683;SDS011;24910;53.248;-6.134;2023-04-25T05:25:18;5.90;;;2.45;;
38683;SDS011;24910;53.248;-6.134;2023-04-25T05:28:02;7.15;;;2.80;;
38683;SDS011;24910;53.248;-6.134;2023-04-25T05:30:52;7.97;;;2.70;;
38683;SDS011;24910;53.248;-6.134;2023-04-25T05:33:28;6.35;;;2.53;;
38683;SDS011;24910;53.248;-6.134;2023-04-25T05:35:59;7.85;;;2.67;;
38683;SDS011;24910;53.248;-6.134;2023-04-25T05:38:28;6.38;;;2.80;;
38683;SDS011;24910;53.248;-6.134;2023-04-25T05:41:21;7.00;;;3.00;;
38683;SDS011;24910;53.248;-6.134;2023-04-25T05:44:22;7.68;;;2.85;;
38683;SDS011;24910;53.248;-6.134;2023-04-25T05:47:17;7.40;;;2.78;;
38683;SDS011;24910;53.248;-6.134;2023-04-25T05:50:06;5.70;;;2.78;;
38683;SDS011;24910;53.248;-6.134;2023-04-25T05:53:01;5.10;;;2.42;;
38683;SDS011;24910;53.248;-6.134;2023-04-25T05:55:41;11.93;;;4.55;;
38683;SDS011;24910;53.248;-6.134;2023-04-25T05:58:25;7.60;;;4.22;;
38683;SDS011;24910;53.248;-6.134;2023-04-25T06:00:55;11.90;;;3.67;;
38683;SDS011;24910;53.248;-6.134;2023-04-25T06:03:24;10.55;;;5.90;;
38683;SDS011;24910;53.248;-6.134;2023-04-25T06:05:57;5.55;;;3.10;;
38683;SDS011;24910;53.248;-6.134;2023-04-25T06:08:27;8.82;;;3.40;;
38683;SDS011;24910;53.248;-6.134;2023-04-25T06:10:57;4.05;;;3.00;;
38683;SDS011;24910;53.248;-6.134;2023-04-25T06:13:26;6.70;;;4.20;;
38683;SDS011;24910;53.248;-6.134;2023-04-25T06:15:55;6.32;;;3.50;;
38683;SDS011;24910;53.248;-6.134;2023-04-25T06:18:25;11.05;;;3.90;;
38683;SDS011;24910;53.248;-6.134;2023-04-25T06:20:54;8.68;;;3.33;;
38683;SDS011;24910;53.248;-6.134;2023-04-25T06:23:24;7.38;;;4.25;;
38683;SDS011;24910;53.248;-6.134;2023-04-25T06:26:03;5.78;;;4.20;;
38683;SDS011;24910;53.248;-6.134;2023-04-25T06:28:33;6.82;;;3.83;;
38683;SDS011;24910;53.248;-6.134;2023-04-25T06:31:04;9.32;;;4.40;;
38683;SDS011;24910;53.248;-6.134;2023-04-25T06:33:33;7.65;;;4.88;;
38683;SDS011;24910;53.248;-6.134;2023-04-25T06:36:03;9.35;;;4.90;;
38683;SDS011;24910;53.248;-6.134;2023-04-25T06:38:32;9.73;;;4.05;;
38683;SDS011;24910;53.248;-6.134;2023-04-25T06:41:04;8.93;;;4.10;;
38683;SDS011;24910;53.248;-6.134;2023-04-25T06:43:35;8.25;;;4.22;;
38683;SDS011;24910;53.248;-6.134;2023-04-25T06:46:04;9.43;;;4.00;;
38683;SDS011;24910;53.248;-6.134;2023-04-25T06:48:56;5.20;;;3.85;;
38683;SDS011;24910;53.248;-6.134;2023-04-25T06:51:25;6.18;;;3.85;;
38683;SDS011;24910;53.248;-6.134;2023-04-25T06:53:57;7.47;;;4.13;;
38683;SDS011;24910;53.248;-6.134;2023-04-25T06:56:33;5.75;;;4.07;;
38683;SDS011;24910;53.248;-6.134;2023-04-25T06:59:10;6.60;;;4.18;;
38683;SDS011;24910;53.248;-6.134;2023-04-25T07:01:41;6.28;;;4.32;;
38683;SDS011;24910;53.248;-6.134;2023-04-25T07:04:23;11.38;;;4.28;;
38683;SDS011;24910;53.248;-6.134;2023-04-25T07:06:55;7.60;;;4.20;;
38683;SDS011;24910;53.248;-6.134;2023-04-25T07:09:41;13.32;;;4.97;;
38683;SDS011;24910;53.248;-6.134;2023-04-25T07:12:11;8.35;;;4.43;;
38683;SDS011;24910;53.248;-6.134;2023-04-25T07:14:40;10.30;;;4.60;;
38683;SDS011;24910;53.248;-6.134;2023-04-25T07:17:10;7.90;;;4.55;;
38683;SDS011;24910;53.248;-6.134;2023-04-25T07:19:41;6.82;;;4.63;;
38683;SDS011;24910;53.248;-6.134;2023-04-25T07:22:10;7.15;;;4.47;;
38683;SDS011;24910;53.248;-6.134;2023-04-25T07:24:41;6.25;;;4.40;;
38683;SDS011;24910;53.248;-6.134;2023-04-25T07:27:15;7.13;;;3.78;;
38683;SDS011;24910;53.248;-6.134;2023-04-25T07:30:07;7.95;;;4.10;;
38683;SDS011;24910;53.248;-6.134;2023-04-25T07:32:38;6.97;;;3.85;;
38683;SDS011;24910;53.248;-6.134;2023-04-25T07:35:09;6.55;;;3.50;;
38683;SDS011;24910;53.248;-6.134;2023-04-25T07:37:38;8.43;;;4.03;;
38683;SDS011;24910;53.248;-6.134;2023-04-25T07:40:18;5.50;;;3.30;;
38683;SDS011;24910;53.248;-6.134;2023-04-25T07:42:51;6.65;;;3.40;;
38683;SDS011;24910;53.248;-6.134;2023-04-25T07:45:31;5.88;;;3.80;;
38683;SDS011;24910;53.248;-6.134;2023-04-25T07:48:01;6.95;;;3.92;;
38683;SDS011;24910;53.248;-6.134;2023-04-25T07:50:34;5.78;;;3.45;;
38683;SDS011;24910;53.248;-6.134;2023-04-25T07:53:03;6.80;;;2.60;;
38683;SDS011;24910;53.248;-6.134;2023-04-25T07:55:37;8.43;;;3.08;;
38683;SDS011;24910;53.248;-6.134;2023-04-25T07:58:13;7.90;;;2.40;;
38683;SDS011;24910;53.248;-6.134;2023-04-25T08:00:44;5.60;;;2.40;;
38683;SDS011;24910;53.248;-6.134;2023-04-25T08:03:35;5.65;;;2.60;;
38683;SDS011;24910;53.248;-6.134;2023-04-25T08:06:12;6.35;;;2.45;;
38683;SDS011;24910;53.248;-6.134;2023-04-25T08:09:00;7.00;;;2.38;;
38683;SDS011;24910;53.248;-6.134;2023-04-25T08:11:36;4.68;;;2.33;;
38683;SDS011;24910;53.248;-6.134;2023-04-25T08:14:07;8.13;;;2.63;;
38683;SDS011;24910;53.248;-6.134;2023-04-25T08:16:37;5.50;;;2.40;;
38683;SDS011;24910;53.248;-6.134;2023-04-25T08:19:06;6.05;;;2.22;;
38683;SDS011;24910;53.248;-6.134;2023-04-25T08:21:37;3.95;;;2.22;;
38683;SDS011;24910;53.248;-6.134;2023-04-25T08:24:11;5.15;;;2.10;;
38683;SDS011;24910;53.248;-6.134;2023-04-25T08:26:40;6.47;;;2.22;;
38683;SDS011;24910;53.248;-6.134;2023-04-25T08:29:14;5.32;;;2.17;;
38683;SDS011;24910;53.248;-6.134;2023-04-25T08:31:44;8.05;;;3.03;;
38683;SDS011;24910;53.248;-6.134;2023-04-25T08:34:14;4.93;;;2.17;;
38683;SDS011;24910;53.248;-6.134;2023-04-25T08:36:49;4.63;;;2.33;;
38683;SDS011;24910;53.248;-6.134;2023-04-25T08:39:35;5.78;;;2.17;;
38683;SDS011;24910;53.248;-6.134;2023-04-25T08:42:24;3.08;;;2.08;;
38683;SDS011;24910;53.248;-6.134;2023-04-25T08:44:56;4.72;;;2.15;;
38683;SDS011;24910;53.248;-6.134;2023-04-25T08:47:33;5.97;;;2.33;;
38683;SDS011;24910;53.248;-6.134;2023-04-25T08:50:03;3.72;;;2.20;;
38683;SDS011;24910;53.248;-6.134;2023-04-25T08:55:07;3.95;;;2.33;;
38683;SDS011;24910;53.248;-6.134;2023-04-25T08:57:38;6.50;;;2.72;;
38683;SDS011;24910;53.248;-6.134;2023-04-25T09:05:12;6.50;;;2.10;;
38683;SDS011;24910;53.248;-6.134;2023-04-25T09:07:44;4.47;;;2.50;;
38683;SDS011;24910;53.248;-6.134;2023-04-25T09:10:16;9.57;;;2.92;;
38683;SDS011;24910;53.248;-6.134;2023-04-25T09:12:57;7.22;;;2.40;;
38683;SDS011;24910;53.248;-6.134;2023-04-25T09:15:46;5.68;;;2.88;;
38683;SDS011;24910;53.248;-6.134;2023-04-25T09:18:35;6.00;;;2.08;;
38683;SDS011;24910;53.248;-6.134;2023-04-25T09:21:06;8.32;;;2.63;;
38683;SDS011;24910;53.248;-6.134;2023-04-25T09:23:45;8.63;;;2.20;;
38683;SDS011;24910;53.248;-6.134;2023-04-25T09:26:17;9.82;;;2.58;;
38683;SDS011;24910;53.248;-6.134;2023-04-25T09:28:49;6.90;;;2.40;;
38683;SDS011;24910;53.248;-6.134;2023-04-25T09:31:33;5.43;;;2.40;;
38683;SDS011;24910;53.248;-6.134;2023-04-25T09:34:04;6.28;;;2.50;;
38683;SDS011;24910;53.248;-6.134;2023-04-25T09:36:41;6.22;;;2.30;;
38683;SDS011;24910;53.248;-6.134;2023-04-25T09:39:30;8.52;;;2.38;;
38683;SDS011;24910;53.248;-6.134;2023-04-25T09:42:10;8.30;;;2.33;;
38683;SDS011;24910;53.248;-6.134;2023-04-25T09:44:41;6.18;;;2.30;;
38683;SDS011;24910;53.248;-6.134;2023-04-25T09:47:12;7.90;;;2.45;;
38683;SDS011;24910;53.248;-6.134;2023-04-25T09:49:44;8.07;;;2.55;;
38683;SDS011;24910;53.248;-6.134;2023-04-25T09:52:15;6.65;;;2.55;;
38683;SDS011;24910;53.248;-6.134;2023-04-25T09:54:56;7.90;;;2.60;;
38683;SDS011;24910;53.248;-6.134;2023-04-25T09:57:31;6.60;;;3.03;;
38683;SDS011;24910;53.248;-6.134;2023-04-25T10:00:01;8.20;;;3.17;;
38683;SDS011;24910;53.248;-6.134;2023-04-25T10:02:40;8.35;;;3.28;;
38683;SDS011;24910;53.248;-6.134;2023-04-25T10:05:34;8.00;;;2.97;;
38683;SDS011;24910;53.248;-6.134;2023-04-25T10:08:04;9.27;;;3.40;;
38683;SDS011;24910;53.248;-6.134;2023-04-25T10:10:37;9.40;;;4.05;;
38683;SDS011;24910;53.248;-6.134;2023-04-25T10:13:09;5.90;;;3.35;;
38683;SDS011;24910;53.248;-6.134;2023-04-25T10:15:41;8.15;;;3.42;;
38683;SDS011;24910;53.248;-6.134;2023-04-25T10:18:11;9.87;;;3.60;;
38683;SDS011;24910;53.248;-6.134;2023-04-25T10:20:41;7.25;;;3.60;;
38683;SDS011;24910;53.248;-6.134;2023-04-25T10:23:11;9.20;;;3.80;;
38683;SDS011;24910;53.248;-6.134;2023-04-25T10:25:45;9.20;;;3.50;;
38683;SDS011;24910;53.248;-6.134;2023-04-25T10:28:14;10.65;;;3.78;;
38683;SDS011;24910;53.248;-6.134;2023-04-25T10:33:37;10.32;;;3.88;;
38683;SDS011;24910;53.248;-6.134;2023-04-25T10:36:10;10.98;;;3.80;;
38683;SDS011;24910;53.248;-6.134;2023-04-25T10:38:40;8.85;;;3.20;;
38683;SDS011;24910;53.248;-6.134;2023-04-25T10:41:12;10.80;;;3.92;;
38683;SDS011;24910;53.248;-6.134;2023-04-25T10:46:17;11.90;;;3.88;;
38683;SDS011;24910;53.248;-6.134;2023-04-25T10:48:48;12.65;;;4.20;;
38683;SDS011;24910;53.248;-6.134;2023-04-25T10:51:19;10.53;;;3.70;;
38683;SDS011;24910;53.248;-6.134;2023-04-25T10:53:56;11.30;;;3.38;;
38683;SDS011;24910;53.248;-6.134;2023-04-25T10:56:29;9.70;;;3.60;;
38683;SDS011;24910;53.248;-6.134;2023-04-25T10:59:03;13.15;;;3.60;;
38683;SDS011;24910;53.248;-6.134;2023-04-25T11:01:38;10.52;;;3.85;;
38683;SDS011;24910;53.248;-6.134;2023-04-25T11:07:05;10.63;;;3.83;;
38683;SDS011;24910;53.248;-6.134;2023-04-25T11:09:39;7.35;;;3.40;;
38683;SDS011;24910;53.248;-6.134;2023-04-25T11:12:10;9.10;;;3.47;;
38683;SDS011;24910;53.248;-6.134;2023-04-25T11:14:40;8.43;;;3.20;;
38683;SDS011;24910;53.248;-6.134;2023-04-25T11:17:09;9.68;;;3.88;;
38683;SDS011;24910;53.248;-6.134;2023-04-25T11:19:39;9.68;;;3.58;;
38683;SDS011;24910;53.248;-6.134;2023-04-25T11:22:08;7.32;;;3.40;;
38683;SDS011;24910;53.248;-6.134;2023-04-25T11:24:38;10.70;;;3.35;;
38683;SDS011;24910;53.248;-6.134;2023-04-25T11:27:09;12.23;;;3.53;;
38683;SDS011;24910;53.248;-6.134;2023-04-25T11:29:38;9.57;;;3.90;;
38683;SDS011;24910;53.248;-6.134;2023-04-25T11:32:07;9.07;;;3.58;;
38683;SDS011;24910;53.248;-6.134;2023-04-25T11:34:37;10.05;;;3.58;;
38683;SDS011;24910;53.248;-6.134;2023-04-25T11:37:06;8.27;;;3.95;;
38683;SDS011;24910;53.248;-6.134;2023-04-25T11:39:35;11.55;;;3.80;;
38683;SDS011;24910;53.248;-6.134;2023-04-25T11:42:05;9.35;;;3.55;;
38683;SDS011;24910;53.248;-6.134;2023-04-25T11:44:40;11.27;;;3.38;;
38683;SDS011;24910;53.248;-6.134;2023-04-25T11:47:09;11.43;;;3.95;;
38683;SDS011;24910;53.248;-6.134;2023-04-25T11:49:38;10.82;;;3.70;;
38683;SDS011;24910;53.248;-6.134;2023-04-25T11:52:07;10.57;;;3.83;;
38683;SDS011;24910;53.248;-6.134;2023-04-25T11:54:36;10.52;;;3.80;;
38683;SDS011;24910;53.248;-6.134;2023-04-25T11:57:06;6.20;;;3.50;;
38683;SDS011;24910;53.248;-6.134;2023-04-25T11:59:35;11.15;;;3.78;;
38683;SDS011;24910;53.248;-6.134;2023-04-25T12:02:05;8.95;;;3.47;;
38683;SDS011;24910;53.248;-6.134;2023-04-25T12:04:34;11.50;;;4.20;;
38683;SDS011;24910;53.248;-6.134;2023-04-25T12:07:04;11.90;;;3.63;;
38683;SDS011;24910;53.248;-6.134;2023-04-25T12:09:38;14.25;;;3.78;;
38683;SDS011;24910;53.248;-6.134;2023-04-25T12:12:09;14.27;;;3.90;;
38683;SDS011;24910;53.248;-6.134;2023-04-25T12:14:38;9.07;;;3.33;;
38683;SDS011;24910;53.248;-6.134;2023-04-25T12:17:09;8.45;;;2.70;;
38683;SDS011;24910;53.248;-6.134;2023-04-25T12:19:38;10.18;;;3.08;;
38683;SDS011;24910;53.248;-6.134;2023-04-25T12:22:18;9.57;;;3.70;;
38683;SDS011;24910;53.248;-6.134;2023-04-25T12:24:49;8.73;;;2.80;;
38683;SDS011;24910;53.248;-6.134;2023-04-25T12:27:20;8.13;;;3.25;;
38683;SDS011;24910;53.248;-6.134;2023-04-25T12:29:52;9.88;;;4.07;;
38683;SDS011;24910;53.248;-6.134;2023-04-25T12:32:24;10.85;;;3.38;;
38683;SDS011;24910;53.248;-6.134;2023-04-25T12:37:23;10.25;;;3.60;;
38683;SDS011;24910;53.248;-6.134;2023-04-25T12:39:52;7.35;;;2.78;;
38683;SDS011;24910;53.248;-6.134;2023-04-25T12:42:21;12.85;;;3.00;;
38683;SDS011;24910;53.248;-6.134;2023-04-25T12:44:50;10.32;;;2.78;;
38683;SDS011;24910;53.248;-6.134;2023-04-25T12:47:19;7.88;;;3.05;;
38683;SDS011;24910;53.248;-6.134;2023-04-25T12:49:49;9.45;;;3.47;;
38683;SDS011;24910;53.248;-6.134;2023-04-25T12:52:18;8.30;;;3.38;;
38683;SDS011;24910;53.248;-6.134;2023-04-25T12:54:47;11.57;;;4.03;;
38683;SDS011;24910;53.248;-6.134;2023-04-25T12:57:16;10.05;;;3.80;;
38683;SDS011;24910;53.248;-6.134;2023-04-25T12:59:45;12.75;;;4.97;;
38683;SDS011;24910;53.248;-6.134;2023-04-25T13:02:15;16.55;;;4.57;;
38683;SDS011;24910;53.248;-6.134;2023-04-25T13:04:44;10.13;;;3.97;;
38683;SDS011;24910;53.248;-6.134;2023-04-25T13:07:15;9.40;;;3.90;;
38683;SDS011;24910;53.248;-6.134;2023-04-25T13:09:44;12.80;;;4.30;;
38683;SDS011;24910;53.248;-6.134;2023-04-25T13:12:13;13.07;;;4.75;;
38683;SDS011;24910;53.248;-6.134;2023-04-25T13:14:42;13.20;;;4.68;;
38683;SDS011;24910;53.248;-6.134;2023-04-25T13:17:11;18.40;;;4.38;;
38683;SDS011;24910;53.248;-6.134;2023-04-25T13:19:40;17.65;;;5.22;;
38683;SDS011;24910;53.248;-6.134;2023-04-25T13:22:09;21.00;;;5.18;;
38683;SDS011;24910;53.248;-6.134;2023-04-25T13:24:40;16.55;;;5.35;;
38683;SDS011;24910;53.248;-6.134;2023-04-25T13:27:09;14.97;;;5.30;;
38683;SDS011;24910;53.248;-6.134;2023-04-25T13:29:38;15.00;;;5.13;;
38683;SDS011;24910;53.248;-6.134;2023-04-25T13:32:08;17.55;;;5.50;;
38683;SDS011;24910;53.248;-6.134;2023-04-25T13:34:37;14.48;;;5.18;;
38683;SDS011;24910;53.248;-6.134;2023-04-25T13:37:07;16.77;;;5.10;;
38683;SDS011;24910;53.248;-6.134;2023-04-25T13:39:36;16.52;;;5.10;;
38683;SDS011;24910;53.248;-6.134;2023-04-25T13:42:06;15.80;;;4.40;;
38683;SDS011;24910;53.248;-6.134;2023-04-25T13:44:35;11.47;;;4.53;;
38683;SDS011;24910;53.248;-6.134;2023-04-25T13:47:04;15.73;;;4.70;;
38683;SDS011;24910;53.248;-6.134;2023-04-25T13:49:33;17.70;;;4.30;;
38683;SDS011;24910;53.248;-6.134;2023-04-25T13:52:02;20.08;;;4.38;;
38683;SDS011;24910;53.248;-6.134;2023-04-25T13:54:32;16.65;;;4.70;;
38683;SDS011;24910;53.248;-6.134;2023-04-25T13:57:01;14.07;;;4.63;;
38683;SDS011;24910;53.248;-6.134;2023-04-25T13:59:32;11.82;;;4.32;;
38683;SDS011;24910;53.248;-6.134;2023-04-25T14:02:01;16.67;;;4.38;;
38683;SDS011;24910;53.248;-6.134;2023-04-25T14:04:30;15.63;;;4.55;;
38683;SDS011;24910;53.248;-6.134;2023-04-25T14:07:00;11.35;;;4.32;;
38683;SDS011;24910;53.248;-6.134;2023-04-25T14:09:30;12.02;;;4.22;;
38683;SDS011;24910;53.248;-6.134;2023-04-25T14:11:59;15.77;;;4.95;;
38683;SDS011;24910;53.248;-6.134;2023-04-25T14:14:29;51.35;;;7.05;;
38683;SDS011;24910;53.248;-6.134;2023-04-25T14:16:59;41.90;;;6.70;;
38683;SDS011;24910;53.248;-6.134;2023-04-25T14:19:28;15.20;;;4.07;;
38683;SDS011;24910;53.248;-6.134;2023-04-25T14:21:57;37.38;;;5.85;;
38683;SDS011;24910;53.248;-6.134;2023-04-25T14:24:26;13.18;;;4.82;;
38683;SDS011;24910;53.248;-6.134;2023-04-25T14:26:55;11.55;;;4.05;;
38683;SDS011;24910;53.248;-6.134;2023-04-25T14:29:25;14.02;;;4.55;;
38683;SDS011;24910;53.248;-6.134;2023-04-25T14:31:54;14.95;;;4.78;;
38683;SDS011;24910;53.248;-6.134;2023-04-25T14:34:26;8.25;;;4.00;;
38683;SDS011;24910;53.248;-6.134;2023-04-25T14:36:55;14.10;;;3.77;;
38683;SDS011;24910;53.248;-6.134;2023-04-25T14:39:24;18.48;;;5.10;;
38683;SDS011;24910;53.248;-6.134;2023-04-25T14:41:53;16.58;;;4.80;;
38683;SDS011;24910;53.248;-6.134;2023-04-25T14:44:23;10.27;;;3.85;;
38683;SDS011;24910;53.248;-6.134;2023-04-25T14:46:52;16.02;;;4.55;;
38683;SDS011;24910;53.248;-6.134;2023-04-25T14:49:21;18.63;;;5.38;;
38683;SDS011;24910;53.248;-6.134;2023-04-25T14:51:51;12.98;;;3.90;;
38683;SDS011;24910;53.248;-6.134;2023-04-25T14:54:21;10.13;;;4.10;;
38683;SDS011;24910;53.248;-6.134;2023-04-25T14:56:50;14.23;;;4.05;;
38683;SDS011;24910;53.248;-6.134;2023-04-25T14:59:19;13.80;;;4.47;;
38683;SDS011;24910;53.248;-6.134;2023-04-25T15:01:48;13.63;;;4.15;;
38683;SDS011;24910;53.248;-6.134;2023-04-25T15:04:19;12.70;;;3.78;;
38683;SDS011;24910;53.248;-6.134;2023-04-25T15:06:48;12.85;;;3.80;;
38683;SDS011;24910;53.248;-6.134;2023-04-25T15:09:18;11.23;;;3.70;;
38683;SDS011;24910;53.248;-6.134;2023-04-25T15:11:47;15.00;;;4.33;;
38683;SDS011;24910;53.248;-6.134;2023-04-25T15:14:16;11.40;;;4.20;;
38683;SDS011;24910;53.248;-6.134;2023-04-25T15:16:45;14.43;;;3.80;;
38683;SDS011;24910;53.248;-6.134;2023-04-25T15:19:15;12.55;;;4.00;;
38683;SDS011;24910;53.248;-6.134;2023-04-25T15:21:44;12.15;;;3.75;;
38683;SDS011;24910;53.248;-6.134;2023-04-25T15:24:13;12.23;;;3.60;;
38683;SDS011;24910;53.248;-6.134;2023-04-25T15:26:44;10.32;;;3.67;;